Time;durP1;ratioP1;P1;durP2;ratioP2;P2;SDS_P1;SDS_P2;PMS_P1;PMS_P2;Temp;Humidity;BMP_temperature;BMP_pressure;BME280_temperature;BME280_humidity;BME280_pressure;Samples;Min_cycle;Max_cycle;Signal;HPM_P1;HPM_P2
2022/05/06 00:02:24;;;;;;;6.90;2.78;;;;;;;7.74;28.45;100465.88;4977320;28;20058;-64
2022/05/06 00:04:51;;;;;;;11.50;3.05;;;;;;;7.72;28.90;100468.94;4977248;28;20529;-64
2022/05/06 00:07:19;;;;;;;7.70;2.65;;;;;;;7.67;29.10;100473.72;4976864;28;20057;-64
2022/05/06 00:09:46;;;;;;;6.78;2.95;;;;;;;7.65;28.76;100464.88;4977283;28;20050;-65
2022/05/06 00:12:17;;;;;;;7.07;2.83;;;;;;;7.61;28.75;100459.06;4977102;28;20050;-64
2022/05/06 00:14:47;;;;;;;8.90;2.80;;;;;;;7.62;29.03;100470.97;4985868;28;20050;-65
2022/05/06 00:17:14;;;;;;;12.98;2.60;;;;;;;7.68;28.72;100459.56;4996588;28;20046;-65
2022/05/06 00:19:45;;;;;;;5.63;2.25;;;;;;;7.69;28.58;100475.06;4996284;28;20098;-64
2022/05/06 00:22:12;;;;;;;7.05;2.53;;;;;;;7.70;28.65;100473.97;4996434;28;20149;-64
2022/05/06 00:24:40;;;;;;;5.28;2.47;;;;;;;7.67;29.35;100468.97;4986449;28;20043;-64
2022/05/06 00:27:07;;;;;;;6.03;2.60;;;;;;;7.68;29.44;100480.91;4957464;29;20047;-64
2022/05/06 00:29:34;;;;;;;5.97;2.72;;;;;;;7.69;28.75;100464.00;4957474;29;20419;-65
2022/05/06 00:32:02;;;;;;;7.18;2.63;;;;;;;7.71;29.44;100470.06;4957489;29;20055;-64
2022/05/06 00:34:29;;;;;;;12.30;2.38;;;;;;;7.69;29.31;100471.47;4957414;29;20051;-64
2022/05/06 00:36:55;;;;;;;5.00;2.00;;;;;;;7.64;28.88;100480.63;4975607;28;20054;-65
2022/05/06 00:39:23;;;;;;;6.15;2.53;;;;;;;7.62;29.15;100470.97;4976656;28;20114;-65
2022/05/06 00:41:53;;;;;;;6.45;2.40;;;;;;;7.60;29.54;100473.22;4976340;28;20561;-65
2022/05/06 00:44:22;;;;;;;7.35;2.28;;;;;;;7.58;29.10;100467.97;4963328;28;20518;-65
2022/05/06 00:46:52;;;;;;;6.80;2.03;;;;;;;7.62;29.71;100474.59;4983303;28;20050;-64
2022/05/06 00:49:19;;;;;;;9.45;2.47;;;;;;;7.69;29.22;100472.28;4995554;28;20125;-64
2022/05/06 00:51:47;;;;;;;6.43;2.65;;;;;;;7.75;29.24;100481.41;4995805;28;20062;-64
2022/05/06 00:54:15;;;;;;;7.05;2.72;;;;;;;7.78;28.84;100480.81;4995731;28;20050;-64
2022/05/06 00:56:42;;;;;;;5.28;2.25;;;;;;;7.78;29.21;100473.31;4995802;28;20042;-65
2022/05/06 00:59:09;;;;;;;7.50;2.42;;;;;;;7.83;29.17;100475.22;4996487;28;20054;-64
2022/05/06 01:01:36;;;;;;;6.20;2.40;;;;;;;7.90;29.17;100482.06;4996233;28;20057;-63
2022/05/06 01:04:06;;;;;;;4.43;2.38;;;;;;;7.94;29.33;100477.59;4994060;28;20189;-64
2022/05/06 01:06:35;;;;;;;3.65;1.90;;;;;;;7.97;29.17;100478.97;4996238;28;20048;-64
2022/05/06 01:09:03;;;;;;;5.85;2.25;;;;;;;8.02;28.99;100481.69;4994174;28;20489;-64
2022/05/06 01:11:31;;;;;;;4.28;2.30;;;;;;;8.03;28.95;100483.31;4994525;28;20050;-64
2022/05/06 01:13:58;;;;;;;10.95;2.20;;;;;;;8.06;29.15;100478.03;4991566;28;20486;-65
2022/05/06 01:16:32;;;;;;;4.45;1.98;;;;;;;8.12;28.95;100473.25;4956852;28;20053;-65
2022/05/06 01:18:59;;;;;;;3.35;2.10;;;;;;;8.11;29.04;100480.72;4956358;28;20087;-64
2022/05/06 01:21:32;;;;;;;6.13;2.15;;;;;;;8.15;29.03;100487.34;4956980;29;20062;-64
2022/05/06 01:23:59;;;;;;;9.18;2.58;;;;;;;8.12;29.31;100474.09;4956636;28;20059;-65
2022/05/06 01:26:54;;;;;;;7.47;2.47;;;;;;;8.07;29.31;100474.13;4975351;28;20085;-65
2022/05/06 01:29:22;;;;;;;7.80;2.13;;;;;;;8.04;29.39;100476.66;4975913;28;20054;-65
2022/05/06 01:31:50;;;;;;;6.43;1.90;;;;;;;8.05;29.03;100476.34;4976274;28;20055;-64
2022/05/06 01:34:18;;;;;;;5.70;2.10;;;;;;;8.07;29.40;100474.13;4975548;28;20054;-66
2022/05/06 01:36:51;;;;;;;7.70;1.90;;;;;;;8.07;29.33;100474.13;4993964;28;20050;-64
2022/05/06 01:39:22;;;;;;;5.57;2.20;;;;;;;8.07;29.08;100468.59;4995063;28;20065;-65
2022/05/06 01:41:53;;;;;;;5.28;2.13;;;;;;;8.08;28.77;100483.28;4994939;28;20062;-65
2022/05/06 01:44:24;;;;;;;6.18;1.90;;;;;;;8.07;29.47;100476.06;4970584;28;20450;-63
2022/05/06 01:46:55;;;;;;;7.32;2.20;;;;;;;8.06;29.33;100486.34;4970212;28;20046;-64
2022/05/06 01:49:23;;;;;;;7.10;2.65;;;;;;;8.03;29.14;100489.69;4975011;28;20067;-65
2022/05/06 01:51:53;;;;;;;5.45;2.05;;;;;;;8.01;29.50;100491.09;4975410;28;20050;-63
2022/05/06 01:54:20;;;;;;;4.72;2.30;;;;;;;7.98;29.24;100489.75;4974986;28;20058;-64
2022/05/06 01:56:47;;;;;;;7.07;2.28;;;;;;;7.97;29.30;100496.41;4975307;28;20413;-65
2022/05/06 01:59:14;;;;;;;4.60;2.30;;;;;;;8.01;28.91;100502.19;4975121;28;20051;-64
2022/05/06 02:01:41;;;;;;;3.75;2.03;;;;;;;7.99;29.23;100496.94;4975783;28;20054;-64
2022/05/06 02:06:53;;;;;;;5.95;2.10;;;;;;;7.88;29.60;100497.34;4975464;28;20054;-65
2022/05/06 02:09:20;;;;;;;6.57;2.22;;;;;;;7.86;29.80;100489.31;4974927;28;20054;-65
2022/05/06 02:11:47;;;;;;;5.75;2.22;;;;;;;7.86;29.89;100500.41;4974977;28;20116;-63
2022/05/06 02:14:14;;;;;;;7.72;2.53;;;;;;;7.83;29.81;100489.91;4974750;28;20125;-64
2022/05/06 02:16:41;;;;;;;6.60;2.13;;;;;;;7.81;30.18;100486.59;4975133;28;20051;-69
2022/05/06 02:19:08;;;;;;;4.63;1.98;;;;;;;7.80;29.78;100493.25;4974686;28;20121;-64
2022/05/06 02:21:35;;;;;;;4.53;2.20;;;;;;;7.80;30.01;100495.19;4974729;28;20060;-64
2022/05/06 02:24:02;;;;;;;11.82;2.75;;;;;;;7.76;30.34;100489.41;4974386;28;20506;-68
2022/05/06 02:26:29;;;;;;;8.50;2.38;;;;;;;7.80;30.25;100487.72;4994369;28;20094;-65
2022/05/06 02:28:56;;;;;;;4.88;1.83;;;;;;;7.80;29.95;100487.72;4994330;28;20046;-64
2022/05/06 02:34:15;;;;;;;4.93;1.90;;;;;;;7.70;30.09;100490.59;4993909;28;20054;-70
2022/05/06 02:36:43;;;;;;;5.82;2.50;;;;;;;7.69;30.44;100497.22;4958259;28;20049;-70
2022/05/06 02:39:10;;;;;;;7.25;2.10;;;;;;;7.67;30.41;100502.22;4955904;29;20047;-69
2022/05/06 02:41:37;;;;;;;5.97;2.17;;;;;;;7.68;30.30;100511.34;4954053;29;20463;-69
2022/05/06 02:44:05;;;;;;;5.57;2.47;;;;;;;7.64;30.67;100508.31;4954776;28;20051;-69
2022/05/06 02:46:33;;;;;;;5.10;2.25;;;;;;;7.62;30.74;100510.59;4966444;28;20054;-72
2022/05/06 02:49:01;;;;;;;6.10;2.17;;;;;;;7.60;30.73;100512.81;4973851;28;20097;-70
2022/05/06 02:51:28;;;;;;;7.07;1.90;;;;;;;7.61;30.69;100497.84;4974307;28;20050;-70
2022/05/06 02:53:56;;;;;;;3.72;1.90;;;;;;;7.66;31.00;100506.09;4974191;28;20050;-70
2022/05/06 02:56:24;;;;;;;3.97;1.90;;;;;;;7.69;30.77;100511.06;4974197;28;20050;-71
2022/05/06 02:58:51;;;;;;;6.03;2.28;;;;;;;7.69;30.95;100516.59;4974095;28;20055;-71
2022/05/06 03:01:18;;;;;;;4.05;2.13;;;;;;;7.76;30.79;100519.88;4974552;28;20051;-69
2022/05/06 03:03:45;;;;;;;3.75;1.77;;;;;;;7.78;30.89;100512.09;4974170;28;20471;-70
2022/05/06 03:06:12;;;;;;;4.22;1.98;;;;;;;7.85;30.76;100515.38;4973690;28;20384;-70
2022/05/06 03:08:39;;;;;;;9.48;2.58;;;;;;;7.91;30.44;100518.91;4973954;28;20069;-70
2022/05/06 03:11:06;;;;;;;6.13;1.60;;;;;;;7.98;30.44;100522.16;4973712;28;20054;-70
2022/05/06 03:13:33;;;;;;;4.97;2.03;;;;;;;8.05;30.44;100523.47;4973445;28;20050;-69
2022/05/06 03:15:59;;;;;;;7.40;2.03;;;;;;;8.19;30.33;100523.59;4974225;28;20157;-69
2022/05/06 03:18:27;;;;;;;3.95;1.88;;;;;;;8.43;29.75;100522.53;4973913;28;20046;-70
2022/05/06 03:20:54;;;;;;;4.60;2.60;;;;;;;8.78;29.45;100524.06;4973863;28;20526;-70
2022/05/06 03:23:21;;;;;;;6.50;2.00;;;;;;;9.10;29.20;100522.25;4973737;28;20102;-72
2022/05/06 03:25:48;;;;;;;4.90;1.88;;;;;;;9.37;29.07;100529.03;4956851;28;20454;-70
2022/05/06 03:28:15;;;;;;;3.58;2.00;;;;;;;9.54;28.48;100532.13;4954804;29;20051;-71
2022/05/06 03:30:45;;;;;;;7.28;2.90;;;;;;;9.70;28.61;100522.41;4954541;29;20408;-70
2022/05/06 03:33:17;;;;;;;3.83;1.70;;;;;;;9.86;27.90;100515.47;4955147;29;20077;-69
2022/05/06 03:35:43;;;;;;;5.47;2.08;;;;;;;9.97;28.07;100523.31;4961149;28;20054;-69
2022/05/06 03:38:10;;;;;;;3.45;1.58;;;;;;;10.14;28.24;100531.94;4973596;28;20051;-70
2022/05/06 03:40:37;;;;;;;7.18;3.53;;;;;;;10.26;28.46;100529.50;4973722;28;20454;-70
2022/05/06 03:43:04;;;;;;;10.65;2.33;;;;;;;10.31;27.68;100525.78;4973185;28;20066;-70
2022/05/06 03:45:31;;;;;;;4.93;2.30;;;;;;;10.39;27.83;100530.66;4973427;28;20098;-69
2022/05/06 03:47:59;;;;;;;4.60;2.05;;;;;;;10.47;28.07;100535.47;4958202;28;20047;-70
2022/05/06 03:53:13;;;;;;;4.82;1.95;;;;;;;10.51;28.09;100542.09;4954235;29;20420;-64
2022/05/06 03:55:41;;;;;;;6.78;2.72;;;;;;;10.57;27.99;100535.31;4953903;29;20062;-66
2022/05/06 03:58:08;;;;;;;4.63;2.10;;;;;;;10.77;26.80;100538.50;4954238;29;20054;-65
2022/05/06 04:00:35;;;;;;;4.55;2.28;;;;;;;10.95;27.10;100542.28;4954792;29;20051;-66
2022/05/06 04:03:02;;;;;;;11.25;3.85;;;;;;;11.13;26.94;100546.91;4954172;29;20074;-66
2022/05/06 04:05:34;;;;;;;5.70;2.20;;;;;;;11.37;27.11;100532.72;4954045;29;20498;-66
2022/05/06 04:08:01;;;;;;;3.70;1.98;;;;;;;11.59;26.65;100546.69;4954544;29;20067;-65
2022/05/06 04:10:29;;;;;;;7.40;2.10;;;;;;;11.82;26.30;100540.84;4968352;28;20498;-65
2022/05/06 04:12:57;;;;;;;7.93;2.50;;;;;;;12.08;26.10;100543.81;4974218;28;20053;-66
2022/05/06 04:15:24;;;;;;;8.40;2.53;;;;;;;12.25;26.07;100541.94;4958888;28;20051;-66
2022/05/06 04:17:51;;;;;;;6.68;1.92;;;;;;;12.33;25.64;100541.19;4956054;28;20054;-66
2022/05/06 04:25:50;;;;;;;9.38;2.22;;;;;;;12.44;25.82;100545.31;4966463;28;20046;-67
2022/05/06 04:28:17;;;;;;;7.63;2.33;;;;;;;12.58;25.79;100548.84;4976463;28;20141;-66
2022/05/06 04:30:44;;;;;;;7.75;2.20;;;;;;;12.55;25.67;100549.50;4977702;28;20051;-65
2022/05/06 04:33:11;;;;;;;8.52;2.20;;;;;;;12.49;25.12;100550.78;4976428;28;20058;-65
2022/05/06 04:35:38;;;;;;;5.18;1.92;;;;;;;12.44;25.79;100556.50;4986525;28;20046;-65
2022/05/06 04:38:05;;;;;;;8.10;2.42;;;;;;;12.32;26.16;100545.09;4996123;28;20125;-65
2022/05/06 04:40:33;;;;;;;7.13;2.35;;;;;;;12.26;25.49;100554.75;4995848;28;20054;-65
2022/05/06 04:43:01;;;;;;;6.22;2.40;;;;;;;12.23;25.99;100558.19;4996315;28;20146;-66
2022/05/06 04:45:28;;;;;;;8.95;2.50;;;;;;;12.29;26.13;100548.53;4994106;28;20054;-65
2022/05/06 04:47:56;;;;;;;5.07;2.20;;;;;;;12.33;25.48;100551.50;4961842;28;20054;-65
2022/05/06 04:50:23;;;;;;;9.02;2.70;;;;;;;12.28;26.35;100552.47;4955529;29;20062;-65
2022/05/06 04:52:50;;;;;;;5.95;2.60;;;;;;;12.37;25.76;100553.34;4957215;29;20125;-66
2022/05/06 04:55:17;;;;;;;3.67;2.05;;;;;;;12.50;25.90;100546.84;4957458;29;20418;-66
2022/05/06 04:57:43;;;;;;;6.03;2.45;;;;;;;12.45;25.71;100549.78;4956959;29;20522;-66
2022/05/06 05:00:10;;;;;;;4.75;2.35;;;;;;;12.42;25.58;100552.38;4956978;29;20047;-66
2022/05/06 05:02:37;;;;;;;5.30;2.42;;;;;;;12.40;25.90;100558.28;4956995;29;20532;-65
2022/05/06 05:05:05;;;;;;;6.10;2.50;;;;;;;12.39;25.94;100555.81;4956789;29;20451;-66
2022/05/06 05:07:32;;;;;;;7.93;2.65;;;;;;;12.39;26.49;100555.81;4956707;29;20047;-65
2022/05/06 05:09:59;;;;;;;6.22;2.90;;;;;;;12.52;25.89;100560.47;4956794;29;20057;-65
2022/05/06 05:12:28;;;;;;;13.90;2.78;;;;;;;12.63;25.90;100557.09;4956857;28;20525;-65
2022/05/06 05:14:56;;;;;;;8.95;2.63;;;;;;;12.75;25.74;100556.47;4963542;28;20084;-65
2022/05/06 05:17:22;;;;;;;8.48;2.92;;;;;;;12.90;25.78;100556.88;4975962;28;20572;-66
2022/05/06 05:19:50;;;;;;;8.40;3.03;;;;;;;12.99;25.54;100547.72;4975848;28;20050;-65
2022/05/06 05:22:18;;;;;;;6.78;2.70;;;;;;;13.01;25.39;100548.22;4975913;28;20055;-65
2022/05/06 05:24:46;;;;;;;6.05;2.70;;;;;;;13.08;25.82;100557.78;4981654;28;20452;-72
2022/05/06 05:27:14;;;;;;;9.00;2.60;;;;;;;13.15;25.54;100565.69;4995074;28;20089;-71
2022/05/06 05:29:42;;;;;;;8.95;2.90;;;;;;;13.27;25.83;100563.09;4994365;28;20054;-72
2022/05/06 05:32:09;;;;;;;6.35;2.67;;;;;;;13.43;25.59;100564.25;4994679;28;20061;-71
2022/05/06 05:34:36;;;;;;;7.75;2.67;;;;;;;13.51;25.54;100566.25;4993121;28;20049;-73
2022/05/06 05:37:09;;;;;;;9.60;2.97;;;;;;;13.63;25.21;100563.63;4955902;29;20049;-69
2022/05/06 05:39:36;;;;;;;7.70;3.22;;;;;;;13.75;25.11;100567.41;4955778;28;20047;-70
2022/05/06 05:42:04;;;;;;;7.80;3.03;;;;;;;13.86;25.22;100573.50;4956138;28;20054;-70
2022/05/06 05:50:02;;;;;;;7.65;2.70;;;;;;;14.02;25.10;100571.84;4967776;28;20433;-71
2022/05/06 05:52:29;;;;;;;8.18;3.20;;;;;;;14.17;24.73;100569.34;4975281;28;20054;-72
2022/05/06 05:54:56;;;;;;;8.60;2.90;;;;;;;14.27;24.66;100568.22;4975167;28;20600;-71
2022/05/06 05:57:22;;;;;;;12.63;3.13;;;;;;;14.34;24.72;100577.75;4975279;28;20101;-72
2022/05/06 05:59:49;;;;;;;6.43;2.25;;;;;;;14.40;24.68;100567.19;4975534;28;20490;-73
2022/05/06 06:02:17;;;;;;;5.90;2.72;;;;;;;14.50;24.25;100567.66;4975130;28;20046;-72
2022/05/06 06:04:45;;;;;;;4.95;2.28;;;;;;;14.71;24.12;100573.34;4974521;28;20050;-72
2022/05/06 06:07:12;;;;;;;7.88;2.53;;;;;;;14.86;24.07;100566.41;4974572;28;20058;-71
2022/05/06 06:09:39;;;;;;;7.70;3.15;;;;;;;14.91;24.21;100561.41;4973550;28;20047;-72
2022/05/06 06:12:06;;;;;;;6.28;2.38;;;;;;;14.90;23.85;100567.34;4975451;28;20498;-72
2022/05/06 06:14:34;;;;;;;7.32;2.35;;;;;;;14.92;23.80;100567.84;4974615;28;20470;-72
2022/05/06 06:17:02;;;;;;;9.27;2.42;;;;;;;14.93;23.16;100564.72;4974711;28;20055;-72
2022/05/06 06:19:32;;;;;;;5.55;2.40;;;;;;;15.04;23.45;100571.56;4974772;28;20077;-72
2022/05/06 06:21:59;;;;;;;4.80;2.33;;;;;;;15.15;23.05;100569.19;4974838;28;20097;-72
2022/05/06 06:24:27;;;;;;;6.57;2.70;;;;;;;15.35;22.85;100566.44;4974654;28;20462;-72
2022/05/06 06:26:54;;;;;;;14.30;2.58;;;;;;;15.46;22.56;100573.34;4974999;28;20106;-72
2022/05/06 06:29:21;;;;;;;9.65;2.47;;;;;;;15.63;22.57;100570.41;4974396;28;20059;-72
2022/05/06 06:31:47;;;;;;;9.38;2.40;;;;;;;16.00;22.11;100569.44;4974240;28;20054;-72
2022/05/06 06:34:14;;;;;;;6.25;2.20;;;;;;;16.37;21.94;100570.38;4974370;28;20133;-72
2022/05/06 06:36:41;;;;;;;5.88;2.30;;;;;;;16.75;21.14;100570.19;4974465;28;20426;-73
2022/05/06 06:39:08;;;;;;;10.05;2.55;;;;;;;17.04;21.13;100567.16;4973413;28;20506;-71
2022/05/06 06:41:35;;;;;;;5.38;2.60;;;;;;;17.55;20.47;100566.44;4975029;28;20057;-72
2022/05/06 06:44:02;;;;;;;9.10;2.08;;;;;;;18.12;20.16;100569.81;4974602;28;20055;-71
2022/05/06 06:46:32;;;;;;;9.60;2.13;;;;;;;18.70;19.33;100562.59;4974186;28;20050;-71
2022/05/06 06:48:59;;;;;;;12.93;2.65;;;;;;;18.83;19.26;100573.44;4961772;28;20093;-70
2022/05/06 06:51:26;;;;;;;9.63;2.55;;;;;;;19.17;19.14;100558.63;4955171;29;20051;-69
2022/05/06 06:53:56;;;;;;;11.55;2.80;;;;;;;19.71;18.90;100568.00;4954548;29;20529;-70
2022/05/06 06:56:23;;;;;;;;;;;;;;;20.25;18.64;100572.84;4954914;29;20098;-70
2022/05/06 06:58:50;;;;;;;8.77;2.58;;;;;;;20.92;18.09;100569.28;4954396;28;19934;-70
2022/05/06 07:01:17;;;;;;;17.48;3.55;;;;;;;21.33;17.54;100563.59;4955160;29;20098;-71
2022/05/06 07:03:44;;;;;;;8.25;2.67;;;;;;;21.53;17.31;100565.09;4954206;29;20561;-72
2022/05/06 07:11:55;;;;;;;4.60;2.38;;;;;;;23.42;16.09;100568.63;4954608;28;20418;-70
2022/05/06 07:14:23;;;;;;;7.72;3.10;;;;;;;24.55;14.71;100553.00;4954264;28;20051;-71
2022/05/06 07:16:51;;;;;;;11.27;3.03;;;;;;;25.70;14.13;100552.31;4954705;29;20050;-71
2022/05/06 07:19:18;;;;;;;8.35;2.55;;;;;;;27.31;13.25;100558.47;4954797;28;20114;-71
2022/05/06 07:21:44;;;;;;;4.47;2.28;;;;;;;27.42;12.35;100553.50;4973828;28;20388;-70
2022/05/06 07:24:11;;;;;;;111.10;49.63;;;;;;;29.13;11.53;100550.56;4973878;28;20055;-70
2022/05/06 07:26:38;;;;;;;20.45;10.73;;;;;;;29.67;11.12;100555.00;4973427;28;20046;-71
2022/05/06 07:29:05;;;;;;;5.28;2.65;;;;;;;31.68;10.14;100552.16;4973687;28;20483;-69
2022/05/06 07:31:32;;;;;;;7.43;2.50;;;;;;;32.68;9.57;100534.47;4973705;28;20498;-70
2022/05/06 07:33:59;;;;;;;5.20;2.70;;;;;;;32.96;9.01;100547.22;4973414;28;20137;-69
2022/05/06 07:36:26;;;;;;;11.63;2.63;;;;;;;33.00;8.96;100547.91;4984391;28;20050;-69
2022/05/06 07:38:53;;;;;;;5.80;2.20;;;;;;;31.50;9.52;100545.25;4992817;28;20042;-71
2022/05/06 07:41:20;;;;;;;7.90;2.33;;;;;;;30.77;9.42;100547.84;4993456;28;20461;-70
2022/05/06 07:43:48;;;;;;;7.57;2.38;;;;;;;31.23;9.46;100548.38;4992621;28;20050;-70
2022/05/06 07:46:15;;;;;;;5.30;2.45;;;;;;;31.68;9.46;100549.25;4983809;28;20050;-71
2022/05/06 07:48:43;;;;;;;5.80;2.70;;;;;;;31.30;9.39;100547.41;4965273;28;20059;-71
2022/05/06 07:51:10;;;;;;;4.13;2.30;;;;;;;31.27;9.51;100539.66;4954306;28;20051;-70
2022/05/06 07:53:37;;;;;;;4.93;2.80;;;;;;;31.66;9.23;100548.13;4957107;29;20050;-69
2022/05/06 07:56:04;;;;;;;4.85;2.70;;;;;;;35.62;7.48;100527.69;4958084;29;20517;-71
2022/05/06 07:58:31;;;;;;;5.57;2.90;;;;;;;39.58;5.66;100526.53;4958041;29;20051;-70
2022/05/06 08:00:58;;;;;;;5.93;2.78;;;;;;;42.39;4.63;100524.56;4957626;28;20051;-69
2022/05/06 08:06:11;;;;;;;10.85;2.90;;;;;;;45.10;3.32;100525.41;4958167;28;20059;-70
2022/05/06 08:08:38;;;;;;;4.38;2.50;;;;;;;46.03;3.08;100532.44;4960413;28;20055;-71
2022/05/06 08:11:05;;;;;;;4.95;2.50;;;;;;;43.93;3.02;100523.72;4977203;28;20502;-70
2022/05/06 08:13:33;;;;;;;8.37;2.67;;;;;;;43.79;3.54;100516.00;4977125;28;20054;-71
2022/05/06 08:16:00;;;;;;;4.85;2.90;;;;;;;44.98;3.13;100505.47;4976808;28;20514;-71
2022/05/06 08:18:28;;;;;;;3.97;2.35;;;;;;;46.15;2.80;100506.63;4977028;28;20528;-67
2022/05/06 08:20:58;;;;;;;6.15;3.47;;;;;;;42.60;3.56;100511.28;4976224;28;20138;-65
2022/05/06 08:23:28;;;;;;;5.63;2.45;;;;;;;38.14;5.13;100502.88;4976197;28;20451;-66
2022/05/06 08:25:55;;;;;;;9.02;2.53;;;;;;;33.99;6.59;100507.81;4996167;28;20598;-66
2022/05/06 08:28:23;;;;;;;8.93;2.28;;;;;;;30.65;8.65;100500.50;4996291;28;20069;-66
2022/05/06 08:30:51;;;;;;;4.97;2.30;;;;;;;27.99;9.42;100500.22;4996986;28;20062;-66
2022/05/06 08:33:19;;;;;;;5.30;2.72;;;;;;;25.85;10.24;100505.44;4995842;28;20086;-65
2022/05/06 08:35:46;;;;;;;6.60;2.28;;;;;;;24.65;10.81;100495.31;4988337;28;20130;-66
2022/05/06 08:38:15;;;;;;;11.18;3.00;;;;;;;24.53;11.21;100504.22;4976707;28;20522;-67
2022/05/06 08:40:42;;;;;;;9.65;2.78;;;;;;;30.77;8.15;100496.13;4976703;28;20141;-67
2022/05/06 08:43:09;;;;;;;6.82;2.95;;;;;;;34.67;6.10;100487.44;4977096;28;20049;-66
2022/05/06 08:51:12;;;;;;;4.57;2.65;;;;;;;32.58;6.84;100486.63;4957220;29;20058;-67
2022/05/06 08:53:40;;;;;;;4.43;2.50;;;;;;;29.79;8.31;100494.13;4957105;29;20047;-68
2022/05/06 08:56:07;;;;;;;4.75;2.22;;;;;;;30.19;8.21;100492.09;4957131;29;20057;-67
2022/05/06 08:58:36;;;;;;;6.10;2.90;;;;;;;30.84;7.97;100485.28;4956905;29;20043;-66
2022/05/06 09:01:11;;;;;;;4.50;2.33;;;;;;;32.52;7.13;100479.00;4957695;29;20054;-67
2022/05/06 09:03:48;;;;;;;9.20;4.55;;;;;;;34.09;6.42;100486.38;4955633;28;20130;-66
2022/05/06 09:06:32;;;;;;;5.35;2.83;;;;;;;37.49;4.99;100478.97;4956533;29;20058;-66
2022/05/06 09:09:00;;;;;;;5.90;2.92;;;;;;;39.80;4.05;100483.16;4956609;29;20051;-67
2022/05/06 09:17:21;;;;;;;10.52;3.03;;;;;;;38.12;5.04;100470.56;4956692;28;20043;-66
2022/05/06 09:19:48;;;;;;;5.00;3.05;;;;;;;38.42;5.05;100473.50;4956603;28;20066;-66
2022/05/06 09:22:16;;;;;;;7.80;3.35;;;;;;;38.22;4.35;100469.16;4956638;28;20047;-67
2022/05/06 09:24:47;;;;;;;5.15;2.90;;;;;;;38.22;4.65;100480.03;4958079;28;20045;-67
2022/05/06 09:27:16;;;;;;;7.60;3.10;;;;;;;35.95;5.16;100485.25;4975446;28;20061;-67
2022/05/06 09:29:47;;;;;;;4.32;3.00;;;;;;;32.46;6.71;100475.91;4975683;28;20055;-67
2022/05/06 09:32:25;;;;;;;7.60;2.85;;;;;;;31.15;7.46;100482.88;4975827;28;20065;-65
2022/05/06 09:34:55;;;;;;;6.35;2.67;;;;;;;29.94;7.72;100483.16;4972255;28;20503;-65
2022/05/06 09:37:37;;;;;;;6.13;3.30;;;;;;;27.63;8.95;100484.66;4956202;29;20145;-66
2022/05/06 09:40:30;;;;;;;25.77;11.07;;;;;;;26.18;9.82;100487.81;4956072;29;20050;-64
2022/05/06 09:43:00;;;;;;;5.95;3.40;;;;;;;25.12;10.53;100483.56;4955806;28;20051;-70
2022/05/06 09:45:40;;;;;;;5.13;2.85;;;;;;;24.64;10.71;100483.13;4960270;28;20054;-66
2022/05/06 09:48:09;;;;;;;5.03;2.88;;;;;;;24.21;10.82;100478.53;4994559;28;20553;-64
2022/05/06 09:50:40;;;;;;;5.40;2.83;;;;;;;23.87;11.11;100470.66;4977246;28;20055;-65
2022/05/06 09:53:17;;;;;;;6.05;3.00;;;;;;;23.54;11.25;100463.19;4955945;28;20055;-65
2022/05/06 09:55:45;;;;;;;;;;;;;;;23.20;11.49;100462.53;4956400;28;20379;-65
2022/05/06 09:58:13;;;;;;;6.68;2.70;;;;;;;23.04;11.84;100456.34;4955730;28;19934;-65
2022/05/06 10:00:41;;;;;;;5.43;3.13;;;;;;;22.47;12.33;100462.69;4956298;28;20453;-65
2022/05/06 10:03:09;;;;;;;4.78;2.50;;;;;;;22.37;12.36;100477.59;4955755;28;20058;-64
2022/05/06 10:05:37;;;;;;;5.05;2.70;;;;;;;22.24;12.44;100450.72;4939031;29;20051;-65
2022/05/06 10:08:17;;;;;;;5.20;2.25;;;;;;;22.43;12.43;100459.00;4956353;28;20047;-65
2022/05/06 10:11:12;;;;;;;7.20;2.83;;;;;;;22.30;12.75;100454.00;4955412;28;20051;-64
2022/05/06 10:13:46;;;;;;;6.53;2.88;;;;;;;22.00;13.00;100461.78;4955570;28;20051;-65
2022/05/06 10:16:13;;;;;;;5.47;2.28;;;;;;;21.81;12.94;100442.09;4975066;28;20058;-64
2022/05/06 10:18:42;;;;;;;5.88;2.80;;;;;;;21.76;13.42;100456.63;4975090;28;20507;-65
2022/05/06 10:21:14;;;;;;;14.82;2.83;;;;;;;21.65;13.30;100464.97;4973739;28;20046;-64
2022/05/06 10:23:52;;;;;;;5.30;2.53;;;;;;;21.48;13.50;100459.84;4974447;28;20051;-65
2022/05/06 10:26:45;;;;;;;4.10;2.35;;;;;;;21.21;13.77;100458.25;4955179;29;20055;-64
2022/05/06 10:32:56;;;;;;;4.88;2.20;;;;;;;21.02;13.89;100444.22;4955326;29;20515;-65
2022/05/06 10:35:40;;;;;;;29.92;12.93;;;;;;;20.68;14.36;100434.75;4971403;28;20098;-65
2022/05/06 10:38:23;;;;;;;7.05;2.45;;;;;;;20.57;14.33;100430.13;4974527;28;20047;-66
2022/05/06 10:41:02;;;;;;;3.90;2.10;;;;;;;20.55;14.42;100438.16;4974153;28;20133;-66
2022/05/06 10:43:50;;;;;;;6.07;2.42;;;;;;;20.56;14.40;100448.25;4974481;28;20054;-66
2022/05/06 10:46:34;;;;;;;4.28;2.35;;;;;;;20.19;14.40;100441.53;4973828;28;20089;-65
2022/05/06 10:49:46;;;;;;;3.85;2.22;;;;;;;19.83;14.97;100426.69;4974080;28;20418;-65
2022/05/06 10:52:16;;;;;;;8.25;2.97;;;;;;;19.64;15.12;100443.66;4953547;28;20062;-65
2022/05/06 10:54:47;;;;;;;4.88;2.83;;;;;;;19.38;15.40;100434.19;4955342;29;20055;-65
2022/05/06 10:57:18;;;;;;;12.23;4.18;;;;;;;19.27;15.88;100436.78;4954847;29;20049;-65
2022/05/06 11:00:02;;;;;;;8.93;4.78;;;;;;;19.30;15.88;100436.03;4955659;29;20049;-64
2022/05/06 11:02:33;;;;;;;9.48;3.58;;;;;;;19.24;16.03;100416.91;4954955;29;20070;-65
2022/05/06 11:05:05;;;;;;;8.57;3.92;;;;;;;18.87;16.52;100426.94;4954975;29;20534;-68
2022/05/06 11:07:43;;;;;;;9.80;3.78;;;;;;;18.99;16.31;100430.47;4954750;29;20058;-65
2022/05/06 11:10:25;;;;;;;5.63;2.92;;;;;;;18.89;16.33;100416.91;4954549;29;20118;-64
2022/05/06 11:12:54;;;;;;;7.15;3.00;;;;;;;18.82;16.25;100413.94;4954642;29;20059;-65
2022/05/06 11:15:32;;;;;;;6.13;3.28;;;;;;;18.80;16.21;100409.84;4954244;28;20051;-65
2022/05/06 11:18:04;;;;;;;6.13;3.35;;;;;;;18.72;16.50;100408.88;4954531;28;20106;-64
2022/05/06 11:20:37;;;;;;;9.65;3.40;;;;;;;18.88;16.65;100406.00;4967355;28;20051;-64
2022/05/06 11:23:09;;;;;;;5.45;3.08;;;;;;;19.00;16.07;100419.97;4975847;28;20387;-64
2022/05/06 11:25:39;;;;;;;7.35;3.67;;;;;;;18.75;16.30;100413.78;4992015;28;20046;-64
2022/05/06 11:28:13;;;;;;;7.28;3.50;;;;;;;18.48;16.50;100413.88;4992066;28;20093;-71
2022/05/06 11:30:45;;;;;;;11.57;3.35;;;;;;;18.08;16.85;100402.75;4993052;28;20073;-72
2022/05/06 11:33:24;;;;;;;10.90;4.22;;;;;;;17.90;16.83;100404.25;4993003;28;20108;-72
2022/05/06 11:36:02;;;;;;;8.52;3.97;;;;;;;18.04;17.08;100404.66;4982510;28;20446;-72
2022/05/06 11:38:42;;;;;;;7.43;3.22;;;;;;;18.25;17.04;100396.78;4973607;28;20133;-72
2022/05/06 11:41:15;;;;;;;6.68;3.22;;;;;;;18.35;16.85;100399.03;4973736;28;20058;-72
2022/05/06 11:43:43;;;;;;;5.93;3.58;;;;;;;18.45;16.82;100398.53;4973550;28;20054;-72
2022/05/06 11:49:08;;;;;;;7.78;3.72;;;;;;;18.22;16.91;100394.69;4973214;28;20085;-73
2022/05/06 11:51:43;;;;;;;15.93;3.78;;;;;;;18.20;17.01;100397.84;4957004;28;20134;-73
2022/05/06 11:54:10;;;;;;;6.05;3.13;;;;;;;18.18;17.33;100382.50;4953950;29;20051;-72
2022/05/06 11:56:39;;;;;;;12.30;3.08;;;;;;;18.24;17.05;100398.75;4953982;29;20051;-71
2022/05/06 11:59:10;;;;;;;6.60;3.42;;;;;;;18.04;17.15;100387.75;4954462;29;20051;-72
2022/05/06 12:01:38;;;;;;;80.97;28.92;;;;;;;18.05;17.34;100389.38;4954150;29;20055;-72
2022/05/06 12:04:08;;;;;;;7.28;4.38;;;;;;;18.18;17.08;100388.16;4953855;28;20079;-72
2022/05/06 12:06:44;;;;;;;6.60;3.30;;;;;;;18.36;17.17;100392.22;4960285;28;20056;-72
2022/05/06 12:09:18;;;;;;;8.07;3.03;;;;;;;18.43;16.91;100381.16;4973081;28;20081;-72
2022/05/06 12:11:46;;;;;;;9.07;3.13;;;;;;;18.40;17.32;100367.81;4972562;28;20113;-72
2022/05/06 12:14:17;;;;;;;6.53;3.03;;;;;;;18.11;17.25;100382.31;4959417;28;20055;-71
2022/05/06 12:17:02;;;;;;;8.57;3.17;;;;;;;17.98;17.12;100377.94;4961342;28;20043;-66
2022/05/06 12:19:37;;;;;;;6.25;2.75;;;;;;;17.84;17.34;100378.38;4970634;28;20053;-65
2022/05/06 12:22:08;;;;;;;10.93;3.15;;;;;;;17.73;17.18;100368.00;4973907;28;20153;-66
2022/05/06 12:25:01;;;;;;;7.05;3.10;;;;;;;17.61;17.29;100374.50;4973391;28;20046;-66
2022/05/06 12:27:31;;;;;;;6.63;3.13;;;;;;;17.45;17.34;100353.16;4964487;28;20050;-64